Time;durP1;ratioP1;P1;durP2;ratioP2;P2;SDS_P1;SDS_P2;PMS_P1;PMS_P2;Temp;Humidity;BMP_temperature;BMP_pressure;BME280_temperature;BME280_humidity;BME280_pressure;Samples;Min_cycle;Max_cycle;Signal;HPM_P1;HPM_P2
2023/08/06 00:02:23;;;;;;;;;;;15.70;99.90;;;;;;5010917;28;19964;-67
2023/08/06 00:04:50;;;;;;;;;;;15.80;99.90;;;;;;5012462;28;19905;-68
2023/08/06 00:07:17;;;;;;;;;;;15.80;99.90;;;;;;4993078;28;19906;-69
2023/08/06 00:09:44;;;;;;;;;;;15.90;99.90;;;;;;5010653;28;19917;-68
2023/08/06 00:12:10;;;;;;;;;;;15.90;99.90;;;;;;5010728;28;19905;-67
2023/08/06 00:14:37;;;;;;;;;;;16.10;99.90;;;;;;5009878;28;19937;-66
2023/08/06 00:17:04;;;;;;;;;;;16.20;99.90;;;;;;5010570;28;19913;-67
2023/08/06 00:19:32;;;;;;;;;;;16.40;99.90;;;;;;5014039;28;19909;-68
2023/08/06 00:21:59;;;;;;;;;;;16.60;99.90;;;;;;5014015;28;24069;-68
2023/08/06 00:24:26;;;;;;;;;;;16.50;99.90;;;;;;5014380;28;19906;-66
2023/08/06 00:26:52;;;;;;;;;;;16.50;99.90;;;;;;5013859;28;19913;-67
2023/08/06 00:29:19;;;;;;;;;;;16.40;99.90;;;;;;5014307;28;19909;-67
2023/08/06 00:31:46;;;;;;;;;;;16.30;99.90;;;;;;5014299;28;19913;-68
2023/08/06 00:34:13;;;;;;;;;;;16.30;99.90;;;;;;5014541;28;24078;-67
2023/08/06 00:36:40;;;;;;;;;;;16.50;99.90;;;;;;4995808;28;19921;-68
2023/08/06 00:39:07;;;;;;;;;;;16.50;99.90;;;;;;5014206;28;19912;-69
2023/08/06 00:41:34;;;;;;;;;;;16.70;99.90;;;;;;5013904;28;24065;-68
2023/08/06 00:44:01;;;;;;;;;;;16.80;99.90;;;;;;5013661;28;19912;-68
2023/08/06 00:46:27;;;;;;;;;;;16.90;99.90;;;;;;5014132;28;19917;-68
2023/08/06 00:48:55;;;;;;;;;;;16.80;99.90;;;;;;4995999;28;20011;-68
2023/08/06 00:51:22;;;;;;;;;;;16.80;99.90;;;;;;5013112;28;25133;-69
2023/08/06 00:53:50;;;;;;;;;;;16.80;99.90;;;;;;5013931;28;19963;-68
2023/08/06 00:56:17;;;;;;;;;;;16.90;99.90;;;;;;4998891;28;19971;-68
2023/08/06 00:58:44;;;;;;;;;;;17.00;99.90;;;;;;5013513;28;20274;-68
2023/08/06 01:01:11;;;;;;;;;;;17.00;99.90;;;;;;4996228;28;19912;-68
2023/08/06 01:03:38;;;;;;;;;;;17.00;99.90;;;;;;5014029;28;19956;-67
2023/08/06 01:06:05;;;;;;;;;;;16.90;99.90;;;;;;5013157;28;24067;-68
2023/08/06 01:08:35;;;;;;;;;;;17.00;99.90;;;;;;5013679;28;24065;-68
2023/08/06 01:11:01;;;;;;;;;;;17.10;99.90;;;;;;5013441;28;19909;-68
2023/08/06 01:13:49;;;;;;;;;;;17.10;99.90;;;;;;5013003;28;20361;-67
2023/08/06 01:16:17;;;;;;;;;;;17.30;99.90;;;;;;5013343;28;20374;-68
2023/08/06 01:18:49;;;;;;;;;;;17.20;99.90;;;;;;5013590;28;19992;-69
2023/08/06 01:21:16;;;;;;;;;;;17.10;99.90;;;;;;5013374;28;19952;-68
2023/08/06 01:23:43;;;;;;;;;;;17.10;99.90;;;;;;5013063;28;20421;-68
2023/08/06 01:26:10;;;;;;;;;;;17.20;99.90;;;;;;5013986;28;19984;-68
2023/08/06 01:28:40;;;;;;;;;;;17.20;99.90;;;;;;4997173;28;19905;-68
2023/08/06 01:31:11;;;;;;;;;;;17.20;99.90;;;;;;5006615;28;19916;-69
2023/08/06 01:33:41;;;;;;;;;;;17.20;99.90;;;;;;5012011;28;19917;-70
2023/08/06 01:36:09;;;;;;;;;;;17.30;99.90;;;;;;5011913;28;19921;-70
2023/08/06 01:38:36;;;;;;;;;;;17.30;99.90;;;;;;5012288;28;19913;-70
2023/08/06 01:41:03;;;;;;;;;;;17.40;99.90;;;;;;5013212;28;19905;-70
2023/08/06 01:43:29;;;;;;;;;;;17.40;99.90;;;;;;5013130;28;24075;-68
2023/08/06 01:45:56;;;;;;;;;;;17.40;99.90;;;;;;5012599;28;19910;-68
2023/08/06 01:48:23;;;;;;;;;;;17.50;99.90;;;;;;5012838;28;19913;-68
2023/08/06 01:50:50;;;;;;;;;;;17.50;99.90;;;;;;5012836;28;20363;-69
2023/08/06 01:53:17;;;;;;;;;;;17.60;99.90;;;;;;5011759;28;20366;-68
2023/08/06 01:55:48;;;;;;;;;;;17.50;99.90;;;;;;5012508;28;20338;-68
2023/08/06 01:58:15;;;;;;;;;;;17.50;99.90;;;;;;5012744;28;19909;-68
2023/08/06 02:00:42;;;;;;;;;;;17.50;99.90;;;;;;5012353;28;20044;-68
2023/08/06 02:03:09;;;;;;;;;;;17.50;99.90;;;;;;5012705;28;19913;-69
2023/08/06 02:05:35;;;;;;;;;;;17.40;99.90;;;;;;5012384;28;19967;-66
2023/08/06 02:08:02;;;;;;;;;;;17.40;99.90;;;;;;5012050;28;20436;-69
2023/08/06 02:10:29;;;;;;;;;;;17.30;99.90;;;;;;5012243;28;20291;-68
2023/08/06 02:12:56;;;;;;;;;;;17.40;99.90;;;;;;4994968;28;19912;-68
2023/08/06 02:15:23;;;;;;;;;;;17.40;99.90;;;;;;4993920;28;19940;-69
2023/08/06 02:17:50;;;;;;;;;;;17.50;99.90;;;;;;5012080;28;20358;-69
2023/08/06 02:20:17;;;;;;;;;;;17.70;99.90;;;;;;5012615;28;19911;-69
2023/08/06 02:22:44;;;;;;;;;;;17.70;99.90;;;;;;5011892;28;19905;-68
2023/08/06 02:25:10;;;;;;;;;;;17.70;99.90;;;;;;4994962;28;19909;-68
2023/08/06 02:27:38;;;;;;;;;;;17.60;99.90;;;;;;5012485;28;20117;-68
2023/08/06 02:30:05;;;;;;;;;;;17.50;99.90;;;;;;4993759;28;19936;-70
2023/08/06 02:32:35;;;;;;;;;;;17.60;99.90;;;;;;4992748;28;19920;-70
2023/08/06 02:35:02;;;;;;;;;;;17.50;99.90;;;;;;4998302;28;20725;-68
2023/08/06 02:37:29;;;;;;;;;;;17.50;99.90;;;;;;4994359;28;19951;-67
2023/08/06 02:39:56;;;;;;;;;;;17.70;99.90;;;;;;5012155;28;19909;-68
2023/08/06 02:42:23;;;;;;;;;;;17.70;99.90;;;;;;5011735;28;24069;-69
2023/08/06 02:44:50;;;;;;;;;;;17.90;99.90;;;;;;5011157;28;19909;-69
2023/08/06 02:47:17;;;;;;;;;;;18.00;99.90;;;;;;5012108;28;19979;-69
2023/08/06 02:49:44;;;;;;;;;;;18.00;99.90;;;;;;5012501;28;19905;-68
2023/08/06 02:52:11;;;;;;;;;;;18.00;99.90;;;;;;5011315;28;20527;-68
2023/08/06 02:54:38;;;;;;;;;;;17.90;99.90;;;;;;5011370;28;19909;-69
2023/08/06 02:57:05;;;;;;;;;;;18.10;99.90;;;;;;5011729;28;19909;-69
2023/08/06 02:59:32;;;;;;;;;;;18.10;99.90;;;;;;5011018;28;20288;-69
2023/08/06 03:02:00;;;;;;;;;;;18.00;99.90;;;;;;4993932;28;25142;-69
2023/08/06 03:04:27;;;;;;;;;;;18.10;99.90;;;;;;4993518;28;19925;-68
2023/08/06 03:06:54;;;;;;;;;;;18.10;99.90;;;;;;5010916;28;19952;-68
2023/08/06 03:09:21;;;;;;;;;;;18.30;99.90;;;;;;5011629;28;20066;-68
2023/08/06 03:11:47;;;;;;;;;;;18.40;99.90;;;;;;5011643;28;20004;-69
2023/08/06 03:14:14;;;;;;;;;;;18.40;99.90;;;;;;5010928;28;20102;-69
2023/08/06 03:16:41;;;;;;;;;;;18.30;99.90;;;;;;5011437;28;19917;-69
2023/08/06 03:19:08;;;;;;;;;;;18.20;99.90;;;;;;5011192;28;19967;-68
2023/08/06 03:21:35;;;;;;;;;;;18.10;99.90;;;;;;5010809;28;19917;-69
2023/08/06 03:24:02;;;;;;;;;;;18.10;99.90;;;;;;5010851;28;19957;-68
2023/08/06 03:26:28;;;;;;;;;;;17.90;99.90;;;;;;5010971;28;24078;-68
2023/08/06 03:28:55;;;;;;;;;;;17.80;99.90;;;;;;5010894;28;20351;-68
2023/08/06 03:31:22;;;;;;;;;;;17.70;99.90;;;;;;5011238;28;24055;-68
2023/08/06 03:33:49;;;;;;;;;;;17.70;99.90;;;;;;5011198;28;19921;-69
2023/08/06 03:36:16;;;;;;;;;;;17.50;99.90;;;;;;5010793;28;20389;-69
2023/08/06 03:38:42;;;;;;;;;;;17.70;99.90;;;;;;5011362;28;20371;-68
2023/08/06 03:41:09;;;;;;;;;;;17.70;99.90;;;;;;5011047;28;19913;-68
2023/08/06 03:43:36;;;;;;;;;;;17.70;99.90;;;;;;5010456;28;19910;-68
2023/08/06 03:46:03;;;;;;;;;;;17.80;99.90;;;;;;4991392;28;19952;-68
2023/08/06 03:48:30;;;;;;;;;;;17.90;99.90;;;;;;4998174;28;20347;-67
2023/08/06 03:50:57;;;;;;;;;;;17.90;99.90;;;;;;5010714;28;19909;-68
2023/08/06 03:53:24;;;;;;;;;;;18.00;99.90;;;;;;4992382;28;20489;-67
2023/08/06 03:55:51;;;;;;;;;;;17.90;99.90;;;;;;5010088;28;24501;-68
2023/08/06 03:58:17;;;;;;;;;;;17.90;99.90;;;;;;5010271;28;19910;-68
2023/08/06 04:00:44;;;;;;;;;;;17.80;99.90;;;;;;5010757;28;25110;-68
2023/08/06 04:03:11;;;;;;;;;;;17.80;99.90;;;;;;5010606;28;20343;-68
2023/08/06 04:05:38;;;;;;;;;;;17.70;99.90;;;;;;5010440;28;19917;-68
2023/08/06 04:08:05;;;;;;;;;;;17.80;99.90;;;;;;5010144;28;24059;-68
2023/08/06 04:10:32;;;;;;;;;;;17.80;99.90;;;;;;5011063;28;19917;-69
2023/08/06 04:12:58;;;;;;;;;;;17.80;99.90;;;;;;4992215;28;19953;-68
2023/08/06 04:15:25;;;;;;;;;;;17.90;99.90;;;;;;5010476;28;19925;-70
2023/08/06 04:17:52;;;;;;;;;;;17.90;99.90;;;;;;5011209;28;20266;-69
2023/08/06 04:20:19;;;;;;;;;;;18.10;99.90;;;;;;5010098;28;19916;-68
2023/08/06 04:22:46;;;;;;;;;;;18.60;99.90;;;;;;5010408;28;24074;-70
2023/08/06 04:25:13;;;;;;;;;;;19.10;99.90;;;;;;5011572;28;24131;-68
2023/08/06 04:27:41;;;;;;;;;;;19.10;99.90;;;;;;5013469;28;19906;-68
2023/08/06 04:30:08;;;;;;;;;;;19.10;99.90;;;;;;5010061;28;19914;-68
2023/08/06 04:32:35;;;;;;;;;;;19.30;99.90;;;;;;5010841;28;19924;-69
2023/08/06 04:35:02;;;;;;;;;;;19.00;99.90;;;;;;5013215;28;20019;-69
2023/08/06 04:37:29;;;;;;;;;;;18.90;99.90;;;;;;5010345;28;19905;-70
2023/08/06 04:39:56;;;;;;;;;;;18.70;99.90;;;;;;5012416;28;25161;-68
2023/08/06 04:42:23;;;;;;;;;;;18.70;99.90;;;;;;5012051;28;24065;-68
2023/08/06 04:44:50;;;;;;;;;;;18.40;99.90;;;;;;5012040;28;24063;-68
2023/08/06 04:47:17;;;;;;;;;;;18.40;99.90;;;;;;5012271;28;24145;-68
2023/08/06 04:49:44;;;;;;;;;;;18.40;99.90;;;;;;5012272;28;24075;-68
2023/08/06 04:52:11;;;;;;;;;;;18.20;99.90;;;;;;5012448;28;24064;-69
2023/08/06 04:54:39;;;;;;;;;;;18.20;99.90;;;;;;5012466;28;19906;-68
2023/08/06 04:57:06;;;;;;;;;;;18.10;99.90;;;;;;5012297;28;19914;-68
2023/08/06 04:59:32;;;;;;;;;;;17.90;99.90;;;;;;4985962;28;24066;-68
2023/08/06 05:01:59;;;;;;;;;;;17.90;99.90;;;;;;4994528;28;19933;-68
2023/08/06 05:04:26;;;;;;;;;;;17.70;99.90;;;;;;5013138;28;20030;-68
2023/08/06 05:06:53;;;;;;;;;;;17.60;99.90;;;;;;5015517;28;20290;-68
2023/08/06 05:09:20;;;;;;;;;;;17.50;99.90;;;;;;5014605;28;24087;-67
2023/08/06 05:11:47;;;;;;;;;;;17.40;99.90;;;;;;5009482;28;19909;-68
2023/08/06 05:14:14;;;;;;;;;;;17.40;99.90;;;;;;5007167;28;19906;-68
2023/08/06 05:16:41;;;;;;;;;;;17.30;99.90;;;;;;5013495;28;19925;-68
2023/08/06 05:19:08;;;;;;;;;;;17.30;99.90;;;;;;5013510;28;19913;-68
2023/08/06 05:21:35;;;;;;;;;;;17.30;99.90;;;;;;5013183;28;19906;-67
2023/08/06 05:24:01;;;;;;;;;;;17.30;99.90;;;;;;5013088;28;19913;-68
2023/08/06 05:26:28;;;;;;;;;;;17.20;99.90;;;;;;5013656;28;20012;-68
2023/08/06 05:28:55;;;;;;;;;;;17.30;99.90;;;;;;5013366;28;19920;-68
2023/08/06 05:31:22;;;;;;;;;;;17.40;99.90;;;;;;5013265;28;24070;-68
2023/08/06 05:33:49;;;;;;;;;;;17.40;99.90;;;;;;5013123;28;20302;-68
2023/08/06 05:36:17;;;;;;;;;;;17.50;99.90;;;;;;5012515;28;20471;-69
2023/08/06 05:38:44;;;;;;;;;;;17.60;99.90;;;;;;5013613;28;19905;-68
2023/08/06 05:41:11;;;;;;;;;;;17.90;99.90;;;;;;5013245;28;25083;-69
2023/08/06 05:43:38;;;;;;;;;;;18.20;99.90;;;;;;5011922;28;20008;-67
2023/08/06 05:46:05;;;;;;;;;;;18.40;99.90;;;;;;5014387;28;19909;-68
2023/08/06 05:48:32;;;;;;;;;;;18.40;99.90;;;;;;5014742;28;25060;-68
2023/08/06 05:50:59;;;;;;;;;;;18.50;99.90;;;;;;5014989;28;19909;-68
2023/08/06 05:53:25;;;;;;;;;;;18.40;99.90;;;;;;5014639;28;24081;-68
2023/08/06 05:55:52;;;;;;;;;;;18.20;99.90;;;;;;5014806;28;24091;-68
2023/08/06 05:58:24;;;;;;;;;;;17.90;99.90;;;;;;4997006;28;20386;-68
2023/08/06 06:00:50;;;;;;;;;;;17.80;99.90;;;;;;5014532;28;20362;-68
2023/08/06 06:03:17;;;;;;;;;;;17.70;99.90;;;;;;5014560;28;19905;-68
2023/08/06 06:05:45;;;;;;;;;;;17.70;99.90;;;;;;5014109;28;20359;-68
2023/08/06 06:08:12;;;;;;;;;;;17.80;99.90;;;;;;5014024;28;20259;-69
2023/08/06 06:10:38;;;;;;;;;;;17.70;99.90;;;;;;5014403;28;25121;-69
2023/08/06 06:13:05;;;;;;;;;;;17.50;99.90;;;;;;5014779;28;20348;-69
2023/08/06 06:15:32;;;;;;;;;;;17.40;99.90;;;;;;5013687;28;25072;-69
2023/08/06 06:17:59;;;;;;;;;;;17.20;99.90;;;;;;5013869;28;20251;-69
2023/08/06 06:20:26;;;;;;;;;;;17.10;99.90;;;;;;5014217;28;20107;-67
2023/08/06 06:22:53;;;;;;;;;;;17.00;99.90;;;;;;5014110;28;19913;-68
2023/08/06 06:25:20;;;;;;;;;;;16.80;99.90;;;;;;5013601;28;19913;-68
2023/08/06 06:27:46;;;;;;;;;;;16.60;99.90;;;;;;5000019;28;19905;-67
2023/08/06 06:30:14;;;;;;;;;;;16.60;99.90;;;;;;5006239;28;20546;-68
2023/08/06 06:32:41;;;;;;;;;;;16.40;99.90;;;;;;5011666;28;19909;-69
2023/08/06 06:35:08;;;;;;;;;;;16.20;99.90;;;;;;5011864;28;24143;-69
2023/08/06 06:37:35;;;;;;;;;;;16.10;99.90;;;;;;5011839;28;19964;-69
2023/08/06 06:40:01;;;;;;;;;;;16.00;99.90;;;;;;5011878;28;24125;-67
2023/08/06 06:42:28;;;;;;;;;;;15.90;99.90;;;;;;5012025;28;19941;-68
2023/08/06 06:44:55;;;;;;;;;;;15.90;99.90;;;;;;5011493;28;24061;-68
2023/08/06 06:47:22;;;;;;;;;;;15.80;99.90;;;;;;5012311;28;19912;-69
2023/08/06 06:49:49;;;;;;;;;;;15.70;99.90;;;;;;5012211;28;19905;-68
2023/08/06 06:55:19;;;;;;;;;;;15.60;99.90;;;;;;5010914;28;20390;-69
2023/08/06 06:57:45;;;;;;;;;;;15.40;99.90;;;;;;5011348;28;24092;-69
2023/08/06 07:00:12;;;;;;;;;;;15.40;99.90;;;;;;5011941;28;19916;-69
2023/08/06 07:02:39;;;;;;;;;;;15.30;99.90;;;;;;5011879;28;24061;-68
2023/08/06 07:05:07;;;;;;;;;;;15.20;99.90;;;;;;5011130;28;24143;-69
2023/08/06 07:07:35;;;;;;;;;;;15.10;99.90;;;;;;4994086;28;19912;-69
2023/08/06 07:10:01;;;;;;;;;;;15.00;99.90;;;;;;5011514;28;24114;-69
2023/08/06 07:12:28;;;;;;;;;;;14.90;99.90;;;;;;4993643;28;25114;-69
2023/08/06 07:14:55;;;;;;;;;;;14.80;99.90;;;;;;5011413;28;19917;-68
2023/08/06 07:17:22;;;;;;;;;;;14.70;99.90;;;;;;5011215;28;19909;-69
2023/08/06 07:19:49;;;;;;;;;;;14.60;99.90;;;;;;5010317;28;24063;-69
2023/08/06 07:22:16;;;;;;;;;;;14.50;99.90;;;;;;4993871;28;24058;-69
2023/08/06 07:24:42;;;;;;;;;;;14.50;99.90;;;;;;5011558;28;19905;-68
2023/08/06 07:27:09;;;;;;;;;;;14.50;99.90;;;;;;5010522;28;19912;-67
2023/08/06 07:29:36;;;;;;;;;;;14.30;99.90;;;;;;4993283;28;24059;-69
2023/08/06 07:32:03;;;;;;;;;;;14.20;99.90;;;;;;5010698;28;20422;-68
2023/08/06 07:34:30;;;;;;;;;;;14.10;99.90;;;;;;5010878;28;20012;-67
2023/08/06 07:36:57;;;;;;;;;;;14.10;99.90;;;;;;5010975;28;20357;-68
2023/08/06 07:39:24;;;;;;;;;;;14.00;99.90;;;;;;4993493;28;24058;-68
2023/08/06 07:41:51;;;;;;;;;;;13.90;99.90;;;;;;5011100;28;19906;-68
2023/08/06 07:44:17;;;;;;;;;;;13.90;99.90;;;;;;5010629;28;19910;-68
2023/08/06 07:46:44;;;;;;;;;;;13.80;99.90;;;;;;5011378;28;19912;-67
2023/08/06 07:49:11;;;;;;;;;;;13.70;99.90;;;;;;5010893;28;24074;-69
2023/08/06 07:51:38;;;;;;;;;;;13.70;99.90;;;;;;5010769;28;25116;-68
2023/08/06 07:54:06;;;;;;;;;;;13.70;99.90;;;;;;5011224;28;19913;-69
2023/08/06 07:56:32;;;;;;;;;;;13.50;99.90;;;;;;4993848;28;20287;-69
2023/08/06 07:58:59;;;;;;;;;;;13.40;99.90;;;;;;5009902;28;19953;-68
2023/08/06 08:01:26;;;;;;;;;;;13.30;99.90;;;;;;5011419;28;19910;-69
2023/08/06 08:06:56;;;;;;;;;;;13.10;99.90;;;;;;5010583;28;19963;-69
2023/08/06 08:09:23;;;;;;;;;;;13.00;99.90;;;;;;5010468;28;19925;-69
2023/08/06 08:11:50;;;;;;;;;;;12.90;99.90;;;;;;5010743;28;19951;-69
2023/08/06 08:14:17;;;;;;;;;;;12.80;99.90;;;;;;5010842;28;20352;-68
2023/08/06 08:16:43;;;;;;;;;;;12.70;99.90;;;;;;5011004;28;19917;-69
2023/08/06 08:19:10;;;;;;;;;;;12.70;99.90;;;;;;5010432;28;19910;-68
2023/08/06 08:21:37;;;;;;;;;;;12.70;99.90;;;;;;5010947;28;25049;-68
2023/08/06 08:24:05;;;;;;;;;;;12.70;99.90;;;;;;5011094;28;25094;-69
2023/08/06 08:26:32;;;;;;;;;;;12.70;99.90;;;;;;5010034;28;19987;-69
2023/08/06 08:28:58;;;;;;;;;;;12.60;99.90;;;;;;5010665;28;19913;-68
2023/08/06 08:31:25;;;;;;;;;;;12.60;99.90;;;;;;5011239;28;20282;-68
2023/08/06 08:33:53;;;;;;;;;;;12.50;99.90;;;;;;5010451;28;19920;-69
2023/08/06 08:36:20;;;;;;;;;;;12.50;99.90;;;;;;5010972;28;25108;-69
2023/08/06 08:38:47;;;;;;;;;;;12.40;99.90;;;;;;5011128;28;19909;-70
2023/08/06 08:41:16;;;;;;;;;;;12.30;99.90;;;;;;5014096;28;19920;-70
2023/08/06 08:43:43;;;;;;;;;;;12.20;99.90;;;;;;5014717;28;24062;-70
2023/08/06 08:46:10;;;;;;;;;;;12.20;99.90;;;;;;5014427;28;19910;-69
2023/08/06 08:48:37;;;;;;;;;;;12.10;99.90;;;;;;5014166;28;24102;-68
2023/08/06 08:51:04;;;;;;;;;;;12.10;99.90;;;;;;5014462;28;19982;-69
2023/08/06 08:53:32;;;;;;;;;;;12.10;99.90;;;;;;4994984;28;24073;-69
2023/08/06 08:55:59;;;;;;;;;;;12.20;99.90;;;;;;5012508;28;24079;-69
2023/08/06 08:58:26;;;;;;;;;;;12.30;99.90;;;;;;5014140;28;24068;-68
2023/08/06 09:00:53;;;;;;;;;;;12.30;99.90;;;;;;5015361;28;24073;-67
2023/08/06 09:03:20;;;;;;;;;;;12.40;99.90;;;;;;5015267;28;21523;-68
2023/08/06 09:05:50;;;;;;;;;;;12.40;99.90;;;;;;5015355;28;19906;-69
2023/08/06 09:08:19;;;;;;;;;;;12.40;99.90;;;;;;5015655;28;19915;-66
2023/08/06 09:10:49;;;;;;;;;;;12.50;99.90;;;;;;5016068;28;24050;-67
2023/08/06 09:13:16;;;;;;;;;;;12.60;99.90;;;;;;5015655;28;20252;-68
2023/08/06 09:15:44;;;;;;;;;;;12.60;99.90;;;;;;5015712;28;19921;-68
2023/08/06 09:18:11;;;;;;;;;;;12.70;99.90;;;;;;5015695;28;19948;-68
2023/08/06 09:20:41;;;;;;;;;;;12.70;99.90;;;;;;5015465;28;24169;-68
2023/08/06 09:23:09;;;;;;;;;;;12.80;99.90;;;;;;5016170;28;19909;-68
2023/08/06 09:25:39;;;;;;;;;;;12.80;99.90;;;;;;5014657;28;19932;-67
2023/08/06 09:28:06;;;;;;;;;;;12.70;99.90;;;;;;5014657;28;25089;-68
2023/08/06 09:30:34;;;;;;;;;;;12.70;99.90;;;;;;5015198;28;19917;-67
2023/08/06 09:33:01;;;;;;;;;;;12.70;99.90;;;;;;5014967;28;19906;-67
2023/08/06 09:35:29;;;;;;;;;;;12.70;99.90;;;;;;4997532;28;20354;-68
2023/08/06 09:38:06;;;;;;;;;;;12.60;99.90;;;;;;5015349;28;20043;-68
2023/08/06 09:40:33;;;;;;;;;;;12.60;99.90;;;;;;5015175;28;19996;-68
2023/08/06 09:43:00;;;;;;;;;;;12.60;99.90;;;;;;5015218;28;19916;-68
2023/08/06 09:45:34;;;;;;;;;;;12.60;99.90;;;;;;4997913;28;20278;-68
2023/08/06 09:48:03;;;;;;;;;;;12.60;99.90;;;;;;5015322;28;19906;-67
2023/08/06 09:50:31;;;;;;;;;;;12.70;99.90;;;;;;5013843;28;19905;-67
2023/08/06 09:52:59;;;;;;;;;;;12.80;99.90;;;;;;5015111;28;19916;-68
2023/08/06 09:55:28;;;;;;;;;;;12.80;99.90;;;;;;5015337;28;24062;-68
2023/08/06 09:57:56;;;;;;;;;;;12.90;99.90;;;;;;5015093;28;19906;-68
2023/08/06 10:00:23;;;;;;;;;;;12.90;99.90;;;;;;5014781;28;24097;-68
2023/08/06 10:02:54;;;;;;;;;;;12.90;99.90;;;;;;5014686;28;20355;-68
2023/08/06 10:05:21;;;;;;;;;;;13.00;99.90;;;;;;5014636;28;19960;-68
2023/08/06 10:07:50;;;;;;;;;;;12.90;99.90;;;;;;5014409;28;20379;-68
2023/08/06 10:10:19;;;;;;;;;;;12.90;99.90;;;;;;5011498;28;19957;-68
2023/08/06 10:12:50;;;;;;;;;;;12.90;99.90;;;;;;5013722;28;19992;-68
2023/08/06 10:15:22;;;;;;;;;;;12.90;99.90;;;;;;5013742;28;20348;-69
2023/08/06 10:17:52;;;;;;;;;;;12.90;99.90;;;;;;5014471;28;19906;-68
2023/08/06 10:20:21;;;;;;;;;;;12.90;99.90;;;;;;5013557;28;20005;-69
2023/08/06 10:22:59;;;;;;;;;;;12.90;99.90;;;;;;5013613;28;20287;-68
2023/08/06 10:25:26;;;;;;;;;;;12.90;99.90;;;;;;5014284;28;19905;-68
2023/08/06 10:27:54;;;;;;;;;;;12.90;99.90;;;;;;5013861;28;19906;-68
2023/08/06 10:30:22;;;;;;;;;;;12.90;99.90;;;;;;5013809;28;19912;-68
2023/08/06 10:32:53;;;;;;;;;;;12.80;99.90;;;;;;5013882;28;19996;-67
2023/08/06 10:35:30;;;;;;;;;;;12.80;99.90;;;;;;5013514;28;20512;-68
2023/08/06 10:38:16;;;;;;;;;;;12.80;99.90;;;;;;5013665;28;19956;-67
2023/08/06 10:40:53;;;;;;;;;;;12.80;99.90;;;;;;5013831;28;20381;-67
2023/08/06 10:43:30;;;;;;;;;;;12.70;99.90;;;;;;5013852;28;24069;-68
2023/08/06 10:45:58;;;;;;;;;;;12.70;99.90;;;;;;5013748;28;19906;-68
2023/08/06 10:48:38;;;;;;;;;;;12.60;99.90;;;;;;5013726;28;19906;-67
2023/08/06 10:51:08;;;;;;;;;;;12.50;99.90;;;;;;5013563;28;20283;-67
2023/08/06 10:53:35;;;;;;;;;;;12.50;99.90;;;;;;5012973;28;19909;-68
2023/08/06 10:56:12;;;;;;;;;;;12.50;99.90;;;;;;5012845;28;19917;-67
2023/08/06 10:58:39;;;;;;;;;;;12.50;99.90;;;;;;5013545;28;19915;-67
2023/08/06 11:01:06;;;;;;;;;;;12.50;99.90;;;;;;5013240;28;19963;-68
2023/08/06 11:03:34;;;;;;;;;;;12.40;99.90;;;;;;5013129;28;24096;-67
2023/08/06 11:06:02;;;;;;;;;;;12.30;99.90;;;;;;4995027;28;24162;-67
2023/08/06 11:08:29;;;;;;;;;;;12.20;99.90;;;;;;5013084;28;19924;-68
2023/08/06 11:11:07;;;;;;;;;;;12.20;99.90;;;;;;5013124;28;19912;-68
2023/08/06 11:13:34;;;;;;;;;;;12.10;99.90;;;;;;5013300;28;24107;-68
2023/08/06 11:16:01;;;;;;;;;;;12.10;99.90;;;;;;5013445;28;20302;-68
2023/08/06 11:18:29;;;;;;;;;;;12.00;99.90;;;;;;5013228;28;25122;-68
2023/08/06 11:20:55;;;;;;;;;;;11.90;99.90;;;;;;5013407;28;19952;-68
2023/08/06 11:23:22;;;;;;;;;;;11.90;99.90;;;;;;5012604;28;19905;-67
2023/08/06 11:25:49;;;;;;;;;;;11.90;99.90;;;;;;5013169;28;19912;-68
2023/08/06 11:28:17;;;;;;;;;;;11.90;99.90;;;;;;5012219;28;24144;-67
2023/08/06 11:30:44;;;;;;;;;;;11.90;99.90;;;;;;5013154;28;20351;-68
2023/08/06 11:33:10;;;;;;;;;;;11.90;99.90;;;;;;5013072;28;19906;-68
2023/08/06 11:35:38;;;;;;;;;;;11.90;99.90;;;;;;5013068;28;19948;-68
2023/08/06 11:38:05;;;;;;;;;;;11.80;99.90;;;;;;5012969;28;19979;-68
2023/08/06 11:40:32;;;;;;;;;;;11.70;99.90;;;;;;5012952;28;19912;-68
2023/08/06 11:42:59;;;;;;;;;;;11.60;99.90;;;;;;5012589;28;19957;-68
2023/08/06 11:45:26;;;;;;;;;;;11.50;99.90;;;;;;5013168;28;19937;-68
2023/08/06 11:47:53;;;;;;;;;;;11.50;99.90;;;;;;5012600;28;24053;-68
2023/08/06 11:50:23;;;;;;;;;;;11.40;99.90;;;;;;5012766;28;19912;-68
2023/08/06 11:52:54;;;;;;;;;;;11.40;99.90;;;;;;5012685;28;24091;-67
2023/08/06 11:55:23;;;;;;;;;;;11.40;99.90;;;;;;5011579;28;24153;-67
2023/08/06 11:57:50;;;;;;;;;;;11.40;99.90;;;;;;5012564;28;19926;-66
2023/08/06 12:00:22;;;;;;;;;;;11.40;99.90;;;;;;5012682;28;19909;-66
2023/08/06 12:02:50;;;;;;;;;;;11.50;99.90;;;;;;5012778;28;24070;-67
2023/08/06 12:05:18;;;;;;;;;;;11.60;99.90;;;;;;4994961;28;24135;-67
2023/08/06 12:07:46;;;;;;;;;;;11.70;99.90;;;;;;5012058;28;19920;-67
2023/08/06 12:10:13;;;;;;;;;;;11.80;99.90;;;;;;5012417;28;19925;-68
2023/08/06 12:12:40;;;;;;;;;;;12.00;99.90;;;;;;5011622;28;19932;-68
2023/08/06 12:15:08;;;;;;;;;;;12.10;99.90;;;;;;4996655;28;20382;-68
2023/08/06 12:17:35;;;;;;;;;;;12.10;99.90;;;;;;5016817;28;19913;-67
2023/08/06 12:20:06;;;;;;;;;;;12.20;99.90;;;;;;5016015;28;19916;-68
2023/08/06 12:22:37;;;;;;;;;;;12.30;99.90;;;;;;5016423;28;19905;-67
2023/08/06 12:25:07;;;;;;;;;;;12.40;99.90;;;;;;5015797;28;20007;-68
2023/08/06 12:27:38;;;;;;;;;;;12.50;99.90;;;;;;5015638;28;24082;-67
2023/08/06 12:30:05;;;;;;;;;;;12.50;99.90;;;;;;5016112;28;20318;-67
2023/08/06 12:32:33;;;;;;;;;;;12.50;99.90;;;;;;5016367;28;24067;-68
2023/08/06 12:35:01;;;;;;;;;;;12.50;99.90;;;;;;5015558;28;24115;-68
2023/08/06 12:37:28;;;;;;;;;;;12.50;99.90;;;;;;5015705;28;19913;-68
2023/08/06 12:39:54;;;;;;;;;;;12.50;99.90;;;;;;5015894;28;19932;-67
2023/08/06 12:42:21;;;;;;;;;;;12.50;99.90;;;;;;5015592;28;19909;-68
2023/08/06 12:44:51;;;;;;;;;;;12.60;99.90;;;;;;5016247;28;19910;-68
2023/08/06 12:47:18;;;;;;;;;;;12.60;99.90;;;;;;5015628;28;19935;-68
2023/08/06 12:49:45;;;;;;;;;;;12.60;99.90;;;;;;5015335;28;20359;-68
2023/08/06 12:52:14;;;;;;;;;;;12.60;99.90;;;;;;5015164;28;19979;-68
2023/08/06 12:54:41;;;;;;;;;;;12.60;99.90;;;;;;5015297;28;24064;-68
2023/08/06 12:57:08;;;;;;;;;;;12.60;99.90;;;;;;5016200;28;25127;-67
2023/08/06 12:59:36;;;;;;;;;;;12.70;99.90;;;;;;5015521;28;20351;-67
2023/08/06 13:02:03;;;;;;;;;;;12.70;99.90;;;;;;5015254;28;24069;-68
2023/08/06 13:04:30;;;;;;;;;;;12.70;99.90;;;;;;5015554;28;24053;-68
2023/08/06 13:06:57;;;;;;;;;;;12.70;99.90;;;;;;5014938;28;19909;-68
2023/08/06 13:09:25;;;;;;;;;;;12.70;99.90;;;;;;5015322;28;20004;-68
2023/08/06 13:11:52;;;;;;;;;;;12.60;99.90;;;;;;4997441;28;19913;-68
2023/08/06 13:14:19;;;;;;;;;;;12.70;99.90;;;;;;5015246;28;19917;-68
2023/08/06 13:16:46;;;;;;;;;;;12.70;99.90;;;;;;5014718;28;19957;-67
2023/08/06 13:19:13;;;;;;;;;;;12.70;99.90;;;;;;5014895;28;19992;-67
2023/08/06 13:21:46;;;;;;;;;;;12.70;99.90;;;;;;5014927;28;19916;-67
2023/08/06 13:24:13;;;;;;;;;;;12.70;99.90;;;;;;5014855;28;20367;-68
2023/08/06 13:26:40;;;;;;;;;;;12.70;99.90;;;;;;5014465;28;19910;-68
2023/08/06 13:29:07;;;;;;;;;;;12.70;99.90;;;;;;5014730;28;19910;-67
2023/08/06 13:31:34;;;;;;;;;;;12.60;99.90;;;;;;5015222;28;24053;-68
2023/08/06 13:34:01;;;;;;;;;;;12.70;99.90;;;;;;5014179;28;24107;-68
2023/08/06 13:36:28;;;;;;;;;;;12.60;99.90;;;;;;5014198;28;19923;-67
2023/08/06 13:38:55;;;;;;;;;;;12.60;99.90;;;;;;5014559;28;19906;-67
2023/08/06 13:41:22;;;;;;;;;;;12.60;99.90;;;;;;4996509;28;19909;-68
2023/08/06 13:43:49;;;;;;;;;;;12.60;99.90;;;;;;5014528;28;25109;-68
2023/08/06 13:46:19;;;;;;;;;;;12.60;99.90;;;;;;5014151;28;19948;-67
2023/08/06 13:48:47;;;;;;;;;;;12.60;99.90;;;;;;4997179;28;24079;-68
2023/08/06 13:51:14;;;;;;;;;;;12.70;99.90;;;;;;5014651;28;19905;-67
2023/08/06 13:53:45;;;;;;;;;;;12.70;99.90;;;;;;5013958;28;19909;-68
2023/08/06 13:56:12;;;;;;;;;;;12.70;99.90;;;;;;5013881;28;20059;-68
2023/08/06 13:58:39;;;;;;;;;;;12.70;99.90;;;;;;5014260;28;20004;-67
2023/08/06 14:01:06;;;;;;;;;;;12.70;99.90;;;;;;5014052;28;19909;-68
2023/08/06 14:03:33;;;;;;;;;;;12.60;99.90;;;;;;5014390;28;19910;-68
2023/08/06 14:06:00;;;;;;;;;;;12.70;99.90;;;;;;5014078;28;19916;-68
2023/08/06 14:08:27;;;;;;;;;;;12.70;99.90;;;;;;5013120;28;24117;-68
2023/08/06 14:10:54;;;;;;;;;;;12.70;99.90;;;;;;5013976;28;19964;-68
2023/08/06 14:13:22;;;;;;;;;;;12.60;99.90;;;;;;5014482;28;19905;-67
2023/08/06 14:15:49;;;;;;;;;;;12.60;99.90;;;;;;5013200;28;19913;-68
2023/08/06 14:18:16;;;;;;;;;;;12.60;99.90;;;;;;4996719;28;20279;-68
2023/08/06 14:20:44;;;;;;;;;;;12.60;99.90;;;;;;5013509;28;25116;-67
2023/08/06 14:23:11;;;;;;;;;;;12.60;99.90;;;;;;5014359;28;20378;-67
2023/08/06 14:25:39;;;;;;;;;;;12.70;99.90;;;;;;5010176;28;19913;-68